sensor_id;sensor_type;location;lat;lon;timestamp;P1;durP1;ratioP1;P2;durP2;ratioP2
42760;SDS011;31672;47.638;19.026;2023-12-14T00:03:12;47.87;;;15.10;;
42760;SDS011;31672;47.638;19.026;2023-12-14T00:08:15;44.90;;;15.00;;
42760;SDS011;31672;47.638;19.026;2023-12-14T00:13:19;38.10;;;12.47;;
42760;SDS011;31672;47.638;19.026;2023-12-14T00:18:22;58.50;;;15.60;;
42760;SDS011;31672;47.638;19.026;2023-12-14T00:23:26;71.07;;;17.77;;
42760;SDS011;31672;47.638;19.026;2023-12-14T00:28:30;45.70;;;15.33;;
42760;SDS011;31672;47.638;19.026;2023-12-14T00:33:36;30.37;;;11.13;;
42760;SDS011;31672;47.638;19.026;2023-12-14T00:38:39;38.60;;;11.53;;
42760;SDS011;31672;47.638;19.026;2023-12-14T00:43:43;22.27;;;8.70;;
42760;SDS011;31672;47.638;19.026;2023-12-14T00:48:47;22.50;;;7.73;;
42760;SDS011;31672;47.638;19.026;2023-12-14T00:53:50;43.80;;;12.37;;
42760;SDS011;31672;47.638;19.026;2023-12-14T00:58:53;17.00;;;7.10;;
42760;SDS011;31672;47.638;19.026;2023-12-14T01:03:57;15.17;;;6.23;;
42760;SDS011;31672;47.638;19.026;2023-12-14T01:09:02;15.33;;;5.90;;
42760;SDS011;31672;47.638;19.026;2023-12-14T01:14:05;18.23;;;6.00;;
42760;SDS011;31672;47.638;19.026;2023-12-14T01:19:09;22.53;;;7.53;;
42760;SDS011;31672;47.638;19.026;2023-12-14T01:24:13;25.00;;;7.77;;
42760;SDS011;31672;47.638;19.026;2023-12-14T01:29:17;20.63;;;8.13;;
42760;SDS011;31672;47.638;19.026;2023-12-14T01:34:20;22.53;;;7.53;;
42760;SDS011;31672;47.638;19.026;2023-12-14T01:39:24;22.00;;;7.00;;
42760;SDS011;31672;47.638;19.026;2023-12-14T01:44:28;14.93;;;6.53;;
42760;SDS011;31672;47.638;19.026;2023-12-14T01:49:31;17.17;;;6.00;;
42760;SDS011;31672;47.638;19.026;2023-12-14T01:54:35;11.83;;;5.20;;
42760;SDS011;31672;47.638;19.026;2023-12-14T01:59:38;12.07;;;4.43;;
42760;SDS011;31672;47.638;19.026;2023-12-14T02:04:41;10.13;;;4.87;;
42760;SDS011;31672;47.638;19.026;2023-12-14T02:09:45;17.07;;;4.93;;
42760;SDS011;31672;47.638;19.026;2023-12-14T02:14:48;13.97;;;4.93;;
42760;SDS011;31672;47.638;19.026;2023-12-14T02:19:52;15.10;;;4.43;;
42760;SDS011;31672;47.638;19.026;2023-12-14T02:24:55;16.37;;;5.03;;
42760;SDS011;31672;47.638;19.026;2023-12-14T02:30:00;17.20;;;5.67;;
42760;SDS011;31672;47.638;19.026;2023-12-14T02:35:03;17.03;;;5.30;;
42760;SDS011;31672;47.638;19.026;2023-12-14T02:40:09;15.20;;;5.50;;
42760;SDS011;31672;47.638;19.026;2023-12-14T02:45:13;12.87;;;4.97;;
42760;SDS011;31672;47.638;19.026;2023-12-14T02:50:16;17.27;;;7.10;;
42760;SDS011;31672;47.638;19.026;2023-12-14T02:55:20;15.50;;;6.50;;
42760;SDS011;31672;47.638;19.026;2023-12-14T03:00:24;18.60;;;7.20;;
42760;SDS011;31672;47.638;19.026;2023-12-14T03:05:27;21.57;;;6.53;;
42760;SDS011;31672;47.638;19.026;2023-12-14T03:10:31;21.13;;;7.10;;
42760;SDS011;31672;47.638;19.026;2023-12-14T03:15:34;25.13;;;7.70;;
42760;SDS011;31672;47.638;19.026;2023-12-14T03:20:38;21.83;;;8.23;;
42760;SDS011;31672;47.638;19.026;2023-12-14T03:25:41;16.80;;;6.13;;
42760;SDS011;31672;47.638;19.026;2023-12-14T03:30:45;21.47;;;6.80;;
42760;SDS011;31672;47.638;19.026;2023-12-14T03:35:49;17.83;;;6.83;;
42760;SDS011;31672;47.638;19.026;2023-12-14T03:40:52;14.23;;;6.03;;
42760;SDS011;31672;47.638;19.026;2023-12-14T03:45:56;14.13;;;5.80;;
42760;SDS011;31672;47.638;19.026;2023-12-14T03:51:02;15.03;;;5.80;;
42760;SDS011;31672;47.638;19.026;2023-12-14T03:56:06;15.50;;;5.40;;
42760;SDS011;31672;47.638;19.026;2023-12-14T04:01:20;22.03;;;7.43;;
42760;SDS011;31672;47.638;19.026;2023-12-14T04:06:24;28.60;;;8.77;;
42760;SDS011;31672;47.638;19.026;2023-12-14T04:11:27;34.93;;;10.50;;
42760;SDS011;31672;47.638;19.026;2023-12-14T04:16:31;29.03;;;10.00;;
42760;SDS011;31672;47.638;19.026;2023-12-14T04:21:34;29.03;;;10.10;;
42760;SDS011;31672;47.638;19.026;2023-12-14T04:26:39;25.33;;;9.30;;
42760;SDS011;31672;47.638;19.026;2023-12-14T04:31:43;23.57;;;9.17;;
42760;SDS011;31672;47.638;19.026;2023-12-14T04:36:46;28.83;;;10.00;;
42760;SDS011;31672;47.638;19.026;2023-12-14T04:41:51;28.40;;;10.17;;
42760;SDS011;31672;47.638;19.026;2023-12-14T04:46:57;28.33;;;8.33;;
42760;SDS011;31672;47.638;19.026;2023-12-14T04:52:01;23.70;;;9.17;;
42760;SDS011;31672;47.638;19.026;2023-12-14T04:57:05;25.87;;;9.70;;
42760;SDS011;31672;47.638;19.026;2023-12-14T05:02:08;27.83;;;8.93;;
42760;SDS011;31672;47.638;19.026;2023-12-14T05:07:12;22.90;;;9.17;;
42760;SDS011;31672;47.638;19.026;2023-12-14T05:12:15;25.17;;;8.50;;
42760;SDS011;31672;47.638;19.026;2023-12-14T05:17:19;19.57;;;8.53;;
42760;SDS011;31672;47.638;19.026;2023-12-14T05:22:23;25.83;;;9.53;;
42760;SDS011;31672;47.638;19.026;2023-12-14T05:27:26;22.90;;;8.37;;
42760;SDS011;31672;47.638;19.026;2023-12-14T05:32:30;19.17;;;8.20;;
42760;SDS011;31672;47.638;19.026;2023-12-14T05:37:34;18.73;;;8.23;;
42760;SDS011;31672;47.638;19.026;2023-12-14T05:42:38;20.43;;;8.47;;
42760;SDS011;31672;47.638;19.026;2023-12-14T05:47:41;21.67;;;8.90;;
42760;SDS011;31672;47.638;19.026;2023-12-14T05:52:45;25.43;;;9.10;;
42760;SDS011;31672;47.638;19.026;2023-12-14T05:57:49;24.27;;;9.07;;
42760;SDS011;31672;47.638;19.026;2023-12-14T06:02:53;24.00;;;8.80;;
42760;SDS011;31672;47.638;19.026;2023-12-14T06:07:57;29.10;;;8.87;;
42760;SDS011;31672;47.638;19.026;2023-12-14T06:13:00;24.30;;;9.30;;
42760;SDS011;31672;47.638;19.026;2023-12-14T06:18:04;26.57;;;8.60;;
42760;SDS011;31672;47.638;19.026;2023-12-14T06:23:08;18.07;;;8.13;;
42760;SDS011;31672;47.638;19.026;2023-12-14T06:28:12;25.23;;;9.03;;
42760;SDS011;31672;47.638;19.026;2023-12-14T06:33:15;32.03;;;13.70;;
42760;SDS011;31672;47.638;19.026;2023-12-14T06:38:19;28.33;;;9.93;;
42760;SDS011;31672;47.638;19.026;2023-12-14T06:43:22;27.63;;;10.47;;
42760;SDS011;31672;47.638;19.026;2023-12-14T06:48:26;26.77;;;9.83;;
42760;SDS011;31672;47.638;19.026;2023-12-14T06:53:29;24.90;;;8.90;;
42760;SDS011;31672;47.638;19.026;2023-12-14T06:58:33;29.27;;;10.87;;
42760;SDS011;31672;47.638;19.026;2023-12-14T07:03:39;25.13;;;9.43;;
42760;SDS011;31672;47.638;19.026;2023-12-14T07:08:47;22.77;;;9.70;;
42760;SDS011;31672;47.638;19.026;2023-12-14T07:13:50;24.43;;;9.13;;
42760;SDS011;31672;47.638;19.026;2023-12-14T07:18:54;22.57;;;9.10;;
42760;SDS011;31672;47.638;19.026;2023-12-14T07:23:57;23.67;;;9.17;;
42760;SDS011;31672;47.638;19.026;2023-12-14T07:29:01;30.90;;;10.23;;
42760;SDS011;31672;47.638;19.026;2023-12-14T07:34:05;31.60;;;10.33;;
42760;SDS011;31672;47.638;19.026;2023-12-14T07:39:08;29.00;;;10.80;;
42760;SDS011;31672;47.638;19.026;2023-12-14T07:44:13;26.33;;;10.10;;
42760;SDS011;31672;47.638;19.026;2023-12-14T07:49:16;24.90;;;10.83;;
42760;SDS011;31672;47.638;19.026;2023-12-14T07:54:25;25.87;;;10.60;;
42760;SDS011;31672;47.638;19.026;2023-12-14T07:59:29;22.63;;;10.47;;
42760;SDS011;31672;47.638;19.026;2023-12-14T08:04:33;27.07;;;11.00;;
42760;SDS011;31672;47.638;19.026;2023-12-14T08:09:37;41.87;;;15.97;;
42760;SDS011;31672;47.638;19.026;2023-12-14T08:14:40;27.97;;;13.20;;
42760;SDS011;31672;47.638;19.026;2023-12-14T08:19:46;24.10;;;11.33;;
42760;SDS011;31672;47.638;19.026;2023-12-14T08:24:49;19.80;;;9.70;;
42760;SDS011;31672;47.638;19.026;2023-12-14T08:29:54;19.57;;;9.70;;
42760;SDS011;31672;47.638;19.026;2023-12-14T08:34:58;19.90;;;9.57;;
42760;SDS011;31672;47.638;19.026;2023-12-14T08:40:02;26.90;;;12.27;;
42760;SDS011;31672;47.638;19.026;2023-12-14T08:45:07;20.47;;;10.23;;
42760;SDS011;31672;47.638;19.026;2023-12-14T08:50:14;19.87;;;10.37;;
42760;SDS011;31672;47.638;19.026;2023-12-14T08:55:18;28.37;;;13.07;;
42760;SDS011;31672;47.638;19.026;2023-12-14T09:00:22;19.53;;;9.80;;
42760;SDS011;31672;47.638;19.026;2023-12-14T09:05:26;20.63;;;10.00;;
42760;SDS011;31672;47.638;19.026;2023-12-14T09:10:29;18.47;;;9.33;;
42760;SDS011;31672;47.638;19.026;2023-12-14T09:15:33;18.77;;;9.53;;
42760;SDS011;31672;47.638;19.026;2023-12-14T09:20:38;17.80;;;8.50;;
42760;SDS011;31672;47.638;19.026;2023-12-14T09:25:43;16.60;;;7.63;;
42760;SDS011;31672;47.638;19.026;2023-12-14T09:30:47;15.57;;;6.77;;
42760;SDS011;31672;47.638;19.026;2023-12-14T09:35:51;13.50;;;6.50;;
42760;SDS011;31672;47.638;19.026;2023-12-14T09:40:54;12.00;;;6.30;;
42760;SDS011;31672;47.638;19.026;2023-12-14T09:45:59;12.27;;;5.97;;
42760;SDS011;31672;47.638;19.026;2023-12-14T09:51:03;10.43;;;5.63;;
42760;SDS011;31672;47.638;19.026;2023-12-14T09:56:09;9.27;;;5.47;;
42760;SDS011;31672;47.638;19.026;2023-12-14T10:01:22;10.77;;;6.20;;
42760;SDS011;31672;47.638;19.026;2023-12-14T10:06:27;8.73;;;5.10;;
42760;SDS011;31672;47.638;19.026;2023-12-14T10:11:32;8.57;;;5.13;;
42760;SDS011;31672;47.638;19.026;2023-12-14T10:16:35;8.30;;;4.57;;
42760;SDS011;31672;47.638;19.026;2023-12-14T10:21:39;8.93;;;4.33;;
42760;SDS011;31672;47.638;19.026;2023-12-14T10:26:47;11.67;;;5.07;;
42760;SDS011;31672;47.638;19.026;2023-12-14T10:31:51;9.80;;;4.23;;
42760;SDS011;31672;47.638;19.026;2023-12-14T10:36:56;8.20;;;4.20;;
42760;SDS011;31672;47.638;19.026;2023-12-14T10:42:01;8.87;;;4.80;;
42760;SDS011;31672;47.638;19.026;2023-12-14T10:47:20;8.47;;;4.53;;
42760;SDS011;31672;47.638;19.026;2023-12-14T10:52:24;8.33;;;4.23;;
42760;SDS011;31672;47.638;19.026;2023-12-14T10:57:29;8.03;;;4.57;;
42760;SDS011;31672;47.638;19.026;2023-12-14T11:02:40;7.83;;;4.30;;
42760;SDS011;31672;47.638;19.026;2023-12-14T11:07:52;17.83;;;7.77;;
42760;SDS011;31672;47.638;19.026;2023-12-14T11:13:02;17.67;;;8.50;;
42760;SDS011;31672;47.638;19.026;2023-12-14T11:23:13;8.33;;;4.90;;
42760;SDS011;31672;47.638;19.026;2023-12-14T11:28:35;8.13;;;4.40;;
42760;SDS011;31672;47.638;19.026;2023-12-14T11:33:46;7.93;;;4.47;;
42760;SDS011;31672;47.638;19.026;2023-12-14T11:38:50;7.93;;;4.20;;
42760;SDS011;31672;47.638;19.026;2023-12-14T11:43:57;8.43;;;4.40;;
42760;SDS011;31672;47.638;19.026;2023-12-14T11:49:01;9.77;;;4.77;;
42760;SDS011;31672;47.638;19.026;2023-12-14T11:54:07;11.73;;;5.20;;
42760;SDS011;31672;47.638;19.026;2023-12-14T11:59:11;8.93;;;4.93;;
42760;SDS011;31672;47.638;19.026;2023-12-14T12:04:15;8.77;;;5.80;;
42760;SDS011;31672;47.638;19.026;2023-12-14T12:09:36;10.23;;;5.67;;
42760;SDS011;31672;47.638;19.026;2023-12-14T12:14:43;10.27;;;4.90;;
42760;SDS011;31672;47.638;19.026;2023-12-14T12:19:47;10.00;;;5.03;;
42760;SDS011;31672;47.638;19.026;2023-12-14T12:24:50;10.67;;;4.77;;
42760;SDS011;31672;47.638;19.026;2023-12-14T12:30:06;10.37;;;4.93;;
42760;SDS011;31672;47.638;19.026;2023-12-14T12:35:11;8.70;;;5.03;;
42760;SDS011;31672;47.638;19.026;2023-12-14T12:40:14;10.33;;;5.53;;
42760;SDS011;31672;47.638;19.026;2023-12-14T12:45:22;10.63;;;5.27;;
42760;SDS011;31672;47.638;19.026;2023-12-14T12:50:30;8.60;;;4.37;;
42760;SDS011;31672;47.638;19.026;2023-12-14T12:55:34;8.90;;;4.87;;
42760;SDS011;31672;47.638;19.026;2023-12-14T13:00:37;9.37;;;4.63;;
42760;SDS011;31672;47.638;19.026;2023-12-14T13:05:41;12.00;;;7.10;;
42760;SDS011;31672;47.638;19.026;2023-12-14T13:10:46;10.97;;;5.80;;
42760;SDS011;31672;47.638;19.026;2023-12-14T13:15:53;9.77;;;5.43;;
42760;SDS011;31672;47.638;19.026;2023-12-14T13:20:56;9.57;;;5.13;;
42760;SDS011;31672;47.638;19.026;2023-12-14T13:26:00;11.43;;;5.07;;
42760;SDS011;31672;47.638;19.026;2023-12-14T13:31:03;21.50;;;7.83;;
42760;SDS011;31672;47.638;19.026;2023-12-14T13:36:09;19.30;;;8.33;;
42760;SDS011;31672;47.638;19.026;2023-12-14T13:41:12;9.23;;;5.37;;
42760;SDS011;31672;47.638;19.026;2023-12-14T13:46:16;9.70;;;5.27;;
42760;SDS011;31672;47.638;19.026;2023-12-14T13:51:25;9.67;;;5.13;;
42760;SDS011;31672;47.638;19.026;2023-12-14T13:56:28;8.43;;;4.60;;
42760;SDS011;31672;47.638;19.026;2023-12-14T14:01:32;10.77;;;5.07;;
42760;SDS011;31672;47.638;19.026;2023-12-14T14:06:36;8.67;;;4.70;;
42760;SDS011;31672;47.638;19.026;2023-12-14T14:11:40;8.07;;;4.80;;
42760;SDS011;31672;47.638;19.026;2023-12-14T14:16:48;7.57;;;4.37;;
42760;SDS011;31672;47.638;19.026;2023-12-14T14:21:52;8.67;;;5.13;;
42760;SDS011;31672;47.638;19.026;2023-12-14T14:26:55;8.27;;;4.47;;
42760;SDS011;31672;47.638;19.026;2023-12-14T14:31:59;11.23;;;4.80;;
42760;SDS011;31672;47.638;19.026;2023-12-14T14:37:02;10.17;;;5.47;;
42760;SDS011;31672;47.638;19.026;2023-12-14T14:42:06;12.27;;;7.00;;
42760;SDS011;31672;47.638;19.026;2023-12-14T14:47:09;9.33;;;5.57;;
42760;SDS011;31672;47.638;19.026;2023-12-14T14:52:13;18.97;;;8.57;;
42760;SDS011;31672;47.638;19.026;2023-12-14T14:57:18;12.47;;;6.47;;
42760;SDS011;31672;47.638;19.026;2023-12-14T15:02:21;20.60;;;9.47;;
42760;SDS011;31672;47.638;19.026;2023-12-14T15:07:25;11.10;;;6.23;;
42760;SDS011;31672;47.638;19.026;2023-12-14T15:12:29;13.27;;;6.70;;
42760;SDS011;31672;47.638;19.026;2023-12-14T15:17:32;11.57;;;5.37;;
42760;SDS011;31672;47.638;19.026;2023-12-14T15:22:36;23.97;;;10.93;;
42760;SDS011;31672;47.638;19.026;2023-12-14T15:27:40;10.67;;;5.73;;
42760;SDS011;31672;47.638;19.026;2023-12-14T15:32:43;8.27;;;5.43;;
42760;SDS011;31672;47.638;19.026;2023-12-14T15:37:47;9.53;;;4.43;;
42760;SDS011;31672;47.638;19.026;2023-12-14T15:42:51;11.77;;;5.90;;
42760;SDS011;31672;47.638;19.026;2023-12-14T15:47:57;9.97;;;5.33;;
42760;SDS011;31672;47.638;19.026;2023-12-14T15:53:00;14.37;;;5.97;;
42760;SDS011;31672;47.638;19.026;2023-12-14T15:58:04;11.67;;;6.00;;
42760;SDS011;31672;47.638;19.026;2023-12-14T16:03:08;12.53;;;5.67;;
42760;SDS011;31672;47.638;19.026;2023-12-14T16:08:12;10.20;;;5.80;;
42760;SDS011;31672;47.638;19.026;2023-12-14T16:13:15;7.93;;;4.17;;
42760;SDS011;31672;47.638;19.026;2023-12-14T16:18:20;12.10;;;5.73;;
42760;SDS011;31672;47.638;19.026;2023-12-14T16:23:25;12.53;;;5.63;;
42760;SDS011;31672;47.638;19.026;2023-12-14T16:28:29;11.50;;;5.47;;
42760;SDS011;31672;47.638;19.026;2023-12-14T16:33:33;20.90;;;9.33;;
42760;SDS011;31672;47.638;19.026;2023-12-14T16:38:43;16.50;;;8.63;;
42760;SDS011;31672;47.638;19.026;2023-12-14T16:43:49;56.90;;;25.77;;
42760;SDS011;31672;47.638;19.026;2023-12-14T16:48:53;33.53;;;15.83;;
42760;SDS011;31672;47.638;19.026;2023-12-14T16:53:56;20.07;;;10.50;;
42760;SDS011;31672;47.638;19.026;2023-12-14T16:59:00;12.90;;;7.07;;
42760;SDS011;31672;47.638;19.026;2023-12-14T17:04:06;11.30;;;6.33;;
42760;SDS011;31672;47.638;19.026;2023-12-14T17:09:10;12.23;;;5.80;;
42760;SDS011;31672;47.638;19.026;2023-12-14T17:14:14;11.23;;;5.70;;
42760;SDS011;31672;47.638;19.026;2023-12-14T17:19:20;12.33;;;6.47;;
42760;SDS011;31672;47.638;19.026;2023-12-14T17:24:23;11.53;;;5.67;;
42760;SDS011;31672;47.638;19.026;2023-12-14T17:29:27;14.77;;;7.20;;
42760;SDS011;31672;47.638;19.026;2023-12-14T17:34:31;42.20;;;12.37;;
42760;SDS011;31672;47.638;19.026;2023-12-14T17:39:35;23.57;;;9.33;;
42760;SDS011;31672;47.638;19.026;2023-12-14T17:44:39;17.20;;;7.70;;
42760;SDS011;31672;47.638;19.026;2023-12-14T17:49:42;22.93;;;10.13;;
42760;SDS011;31672;47.638;19.026;2023-12-14T17:54:46;20.13;;;9.43;;
42760;SDS011;31672;47.638;19.026;2023-12-14T17:59:50;32.77;;;13.87;;
42760;SDS011;31672;47.638;19.026;2023-12-14T18:04:53;37.47;;;16.57;;
42760;SDS011;31672;47.638;19.026;2023-12-14T18:09:57;44.43;;;19.70;;
42760;SDS011;31672;47.638;19.026;2023-12-14T18:15:01;34.90;;;17.33;;
42760;SDS011;31672;47.638;19.026;2023-12-14T18:20:05;26.07;;;13.37;;
42760;SDS011;31672;47.638;19.026;2023-12-14T18:25:09;23.57;;;12.23;;
42760;SDS011;31672;47.638;19.026;2023-12-14T18:30:12;22.67;;;11.17;;
42760;SDS011;31672;47.638;19.026;2023-12-14T18:35:17;19.90;;;10.53;;
42760;SDS011;31672;47.638;19.026;2023-12-14T18:40:21;21.20;;;10.60;;
42760;SDS011;31672;47.638;19.026;2023-12-14T18:45:27;21.33;;;10.73;;
42760;SDS011;31672;47.638;19.026;2023-12-14T18:50:31;18.73;;;9.43;;
42760;SDS011;31672;47.638;19.026;2023-12-14T18:55:35;16.27;;;8.10;;
42760;SDS011;31672;47.638;19.026;2023-12-14T19:00:39;18.93;;;8.90;;
42760;SDS011;31672;47.638;19.026;2023-12-14T19:05:45;27.00;;;13.47;;
42760;SDS011;31672;47.638;19.026;2023-12-14T19:10:49;22.67;;;9.90;;
42760;SDS011;31672;47.638;19.026;2023-12-14T19:15:53;22.83;;;10.87;;
42760;SDS011;31672;47.638;19.026;2023-12-14T19:20:56;23.77;;;12.10;;
42760;SDS011;31672;47.638;19.026;2023-12-14T19:26:00;31.00;;;13.00;;
42760;SDS011;31672;47.638;19.026;2023-12-14T19:31:03;45.67;;;17.00;;
42760;SDS011;31672;47.638;19.026;2023-12-14T19:36:08;22.03;;;9.30;;
42760;SDS011;31672;47.638;19.026;2023-12-14T19:41:16;24.77;;;10.90;;
42760;SDS011;31672;47.638;19.026;2023-12-14T19:46:20;22.23;;;10.47;;
42760;SDS011;31672;47.638;19.026;2023-12-14T19:51:24;22.63;;;10.30;;
42760;SDS011;31672;47.638;19.026;2023-12-14T19:56:28;18.93;;;9.23;;
42760;SDS011;31672;47.638;19.026;2023-12-14T20:01:32;18.23;;;8.70;;
42760;SDS011;31672;47.638;19.026;2023-12-14T20:06:35;13.70;;;7.00;;
42760;SDS011;31672;47.638;19.026;2023-12-14T20:11:39;16.07;;;8.37;;
42760;SDS011;31672;47.638;19.026;2023-12-14T20:16:47;16.27;;;6.23;;
42760;SDS011;31672;47.638;19.026;2023-12-14T20:21:50;12.63;;;6.17;;
42760;SDS011;31672;47.638;19.026;2023-12-14T20:26:55;12.67;;;5.70;;
42760;SDS011;31672;47.638;19.026;2023-12-14T20:31:59;11.80;;;5.43;;
42760;SDS011;31672;47.638;19.026;2023-12-14T20:37:03;10.10;;;4.83;;
42760;SDS011;31672;47.638;19.026;2023-12-14T20:42:07;10.50;;;5.20;;
42760;SDS011;31672;47.638;19.026;2023-12-14T20:47:11;10.03;;;4.80;;
42760;SDS011;31672;47.638;19.026;2023-12-14T20:52:15;8.87;;;4.23;;
42760;SDS011;31672;47.638;19.026;2023-12-14T20:57:19;8.03;;;4.63;;
42760;SDS011;31672;47.638;19.026;2023-12-14T21:02:24;8.97;;;4.93;;
42760;SDS011;31672;47.638;19.026;2023-12-14T21:07:28;8.90;;;4.50;;
42760;SDS011;31672;47.638;19.026;2023-12-14T21:12:32;10.30;;;4.93;;
42760;SDS011;31672;47.638;19.026;2023-12-14T21:17:35;10.80;;;4.33;;
42760;SDS011;31672;47.638;19.026;2023-12-14T21:22:40;9.60;;;3.90;;
42760;SDS011;31672;47.638;19.026;2023-12-14T21:27:43;9.67;;;3.53;;
42760;SDS011;31672;47.638;19.026;2023-12-14T21:32:47;6.87;;;3.50;;
42760;SDS011;31672;47.638;19.026;2023-12-14T21:37:52;12.83;;;5.53;;
42760;SDS011;31672;47.638;19.026;2023-12-14T21:42:55;16.57;;;8.07;;
42760;SDS011;31672;47.638;19.026;2023-12-14T21:47:59;16.23;;;7.23;;
42760;SDS011;31672;47.638;19.026;2023-12-14T21:53:03;14.33;;;7.70;;
42760;SDS011;31672;47.638;19.026;2023-12-14T21:58:08;14.00;;;6.57;;
42760;SDS011;31672;47.638;19.026;2023-12-14T22:03:11;8.37;;;4.70;;
42760;SDS011;31672;47.638;19.026;2023-12-14T22:08:15;7.53;;;4.10;;
42760;SDS011;31672;47.638;19.026;2023-12-14T22:13:19;10.80;;;5.13;;
42760;SDS011;31672;47.638;19.026;2023-12-14T22:18:23;9.67;;;5.00;;
42760;SDS011;31672;47.638;19.026;2023-12-14T22:23:26;13.97;;;6.23;;
42760;SDS011;31672;47.638;19.026;2023-12-14T22:28:30;11.23;;;5.50;;
42760;SDS011;31672;47.638;19.026;2023-12-14T22:33:34;10.90;;;5.43;;
42760;SDS011;31672;47.638;19.026;2023-12-14T22:38:38;11.40;;;5.67;;
42760;SDS011;31672;47.638;19.026;2023-12-14T22:43:42;13.33;;;6.87;;
42760;SDS011;31672;47.638;19.026;2023-12-14T22:48:46;12.63;;;6.13;;
42760;SDS011;31672;47.638;19.026;2023-12-14T22:53:50;11.13;;;5.70;;
42760;SDS011;31672;47.638;19.026;2023-12-14T22:58:54;13.87;;;5.30;;
42760;SDS011;31672;47.638;19.026;2023-12-14T23:03:58;10.33;;;5.50;;
42760;SDS011;31672;47.638;19.026;2023-12-14T23:09:04;9.47;;;4.30;;
42760;SDS011;31672;47.638;19.026;2023-12-14T23:14:08;10.27;;;4.70;;
42760;SDS011;31672;47.638;19.026;2023-12-14T23:19:11;7.97;;;4.10;;
42760;SDS011;31672;47.638;19.026;2023-12-14T23:24:15;8.00;;;4.00;;
42760;SDS011;31672;47.638;19.026;2023-12-14T23:29:18;10.30;;;4.63;;
42760;SDS011;31672;47.638;19.026;2023-12-14T23:34:22;10.80;;;4.90;;
42760;SDS011;31672;47.638;19.026;2023-12-14T23:39:25;14.87;;;6.83;;
42760;SDS011;31672;47.638;19.026;2023-12-14T23:44:29;11.77;;;5.50;;
42760;SDS011;31672;47.638;19.026;2023-12-14T23:49:32;8.73;;;4.23;;
42760;SDS011;31672;47.638;19.026;2023-12-14T23:54:36;10.13;;;5.00;;
42760;SDS011;31672;47.638;19.026;2023-12-14T23:59:40;9.67;;;4.70;;
